createdAt,value
2022-12-20T00:02:00.971Z,38.60
2022-12-20T00:04:30.256Z,37.80
2022-12-20T00:06:59.613Z,38.63
2022-12-20T00:09:28.926Z,43.30
2022-12-20T00:11:58.156Z,35.55
2022-12-20T00:14:27.335Z,30.50
2022-12-20T00:16:56.737Z,31.00
2022-12-20T00:19:26.100Z,29.63
2022-12-20T00:22:01.733Z,28.90
2022-12-20T00:24:37.801Z,28.80
2022-12-20T00:27:13.271Z,30.00
2022-12-20T00:29:42.451Z,28.17
2022-12-20T00:32:11.863Z,29.33
2022-12-20T00:34:41.329Z,28.27
2022-12-20T00:37:10.719Z,31.40
2022-12-20T00:39:40.664Z,29.15
2022-12-20T00:42:10.035Z,29.20
2022-12-20T00:44:40.633Z,30.70
2022-12-20T00:47:09.918Z,29.43
2022-12-20T00:49:39.127Z,30.47
2022-12-20T00:52:08.393Z,29.17
2022-12-20T00:54:37.978Z,32.15
2022-12-20T00:57:07.208Z,30.83
2022-12-20T00:59:36.551Z,32.37
2022-12-20T01:02:06.137Z,32.83
2022-12-20T01:04:35.459Z,33.05
2022-12-20T01:07:05.187Z,31.60
2022-12-20T01:09:34.447Z,32.60
2022-12-20T01:12:03.864Z,32.03
2022-12-20T01:14:33.032Z,32.90
2022-12-20T01:17:02.767Z,32.33
2022-12-20T01:19:32.051Z,32.00
2022-12-20T01:22:01.430Z,32.13
2022-12-20T01:24:31.016Z,29.97
2022-12-20T01:27:00.163Z,33.90
2022-12-20T01:29:29.326Z,30.50
2022-12-20T01:31:58.712Z,31.43
2022-12-20T01:34:28.005Z,31.63
2022-12-20T01:36:57.654Z,33.45
2022-12-20T01:39:26.966Z,31.05
2022-12-20T01:41:56.138Z,32.30
2022-12-20T01:44:43.053Z,31.95
2022-12-20T01:47:12.651Z,31.60
2022-12-20T01:49:44.822Z,31.67
2022-12-20T01:52:16.102Z,30.68
2022-12-20T01:57:17.486Z,30.30
2022-12-20T01:59:50.029Z,30.75
2022-12-20T02:04:47.618Z,29.93
2022-12-20T02:07:18.851Z,29.33
2022-12-20T02:09:48.514Z,29.67
2022-12-20T02:12:20.303Z,30.85
2022-12-20T02:14:56.312Z,30.32
2022-12-20T02:17:31.352Z,30.10
2022-12-20T02:20:12.337Z,30.55
2022-12-20T02:22:50.978Z,30.45
2022-12-20T02:25:36.529Z,29.60
2022-12-20T02:28:16.076Z,30.95
2022-12-20T02:30:47.444Z,31.70
2022-12-20T02:33:17.510Z,31.37
2022-12-20T02:35:46.833Z,29.05
2022-12-20T02:38:28.022Z,32.00
2022-12-20T02:40:59.185Z,30.23
2022-12-20T02:43:47.740Z,29.67
2022-12-20T02:46:19.261Z,31.93
2022-12-20T02:48:49.535Z,30.00
2022-12-20T02:51:22.228Z,28.87
2022-12-20T02:53:51.676Z,29.90
2022-12-20T02:56:23.497Z,32.27
2022-12-20T02:58:54.942Z,28.80
2022-12-20T03:01:28.247Z,31.70
2022-12-20T03:03:59.245Z,32.17
2022-12-20T03:06:30.192Z,31.25
2022-12-20T03:08:59.532Z,29.23
2022-12-20T03:11:30.324Z,31.40
2022-12-20T03:14:00.198Z,30.47
2022-12-20T03:16:29.593Z,33.00
2022-12-20T03:18:59.037Z,29.10
2022-12-20T03:21:28.627Z,32.53
2022-12-20T03:23:57.987Z,29.45
2022-12-20T03:26:27.425Z,31.85
2022-12-20T03:28:59.447Z,31.55
2022-12-20T03:31:30.203Z,31.77
2022-12-20T03:33:59.519Z,32.30
2022-12-20T03:36:29.136Z,35.55
2022-12-20T03:39:01.171Z,46.45
2022-12-20T03:41:33.813Z,52.90
2022-12-20T03:44:03.662Z,52.50
2022-12-20T03:46:33.155Z,47.30
2022-12-20T03:49:02.527Z,39.45
2022-12-20T03:51:31.928Z,43.90
2022-12-20T03:54:01.096Z,43.60
2022-12-20T03:56:45.389Z,40.10
2022-12-20T03:59:14.680Z,37.23
2022-12-20T04:01:45.030Z,38.03
2022-12-20T04:04:15.685Z,36.67
2022-12-20T04:06:44.826Z,34.80
2022-12-20T04:09:14.706Z,37.53
2022-12-20T04:11:49.515Z,36.87
2022-12-20T04:14:18.925Z,33.00
2022-12-20T04:16:48.247Z,34.10
2022-12-20T04:19:18.235Z,34.10
2022-12-20T04:21:49.373Z,33.57
2022-12-20T04:24:19.744Z,34.23
2022-12-20T04:26:56.971Z,34.90
2022-12-20T04:29:26.523Z,35.70
2022-12-20T04:31:56.117Z,34.03
2022-12-20T04:34:25.498Z,34.00
2022-12-20T04:36:54.928Z,34.70
2022-12-20T04:39:36.225Z,33.95
2022-12-20T04:42:34.887Z,35.77
2022-12-20T04:45:04.939Z,33.75
2022-12-20T04:47:34.541Z,35.50
2022-12-20T04:50:06.849Z,33.63
2022-12-20T04:52:54.520Z,36.37
2022-12-20T04:55:23.836Z,34.23
2022-12-20T04:57:53.673Z,35.97
2022-12-20T05:00:23.015Z,35.97
2022-12-20T05:02:58.340Z,33.90
2022-12-20T05:05:28.843Z,35.53
2022-12-20T05:07:58.426Z,34.63
2022-12-20T05:10:27.704Z,38.00
2022-12-20T05:12:57.165Z,36.23
2022-12-20T05:15:34.492Z,40.10
2022-12-20T05:18:04.499Z,38.30
2022-12-20T05:20:42.952Z,42.73
2022-12-20T05:23:31.520Z,47.47
2022-12-20T05:26:19.302Z,45.50
2022-12-20T05:28:49.472Z,41.83
2022-12-20T05:31:19.365Z,42.77
2022-12-20T05:33:48.969Z,41.90
2022-12-20T05:36:18.653Z,42.50
2022-12-20T05:38:48.398Z,43.17
2022-12-20T05:41:19.383Z,40.73
2022-12-20T05:43:51.401Z,41.05
2022-12-20T05:46:20.678Z,37.83
2022-12-20T05:49:01.566Z,38.60
2022-12-20T05:51:32.031Z,42.55
2022-12-20T05:54:05.572Z,39.30
2022-12-20T05:59:18.593Z,38.05
2022-12-20T06:01:50.676Z,40.88
2022-12-20T06:04:20.868Z,40.13
2022-12-20T06:06:50.420Z,39.90
2022-12-20T06:09:21.489Z,39.93
2022-12-20T06:11:59.042Z,40.47
2022-12-20T06:14:29.393Z,38.20
2022-12-20T06:16:59.654Z,41.63
2022-12-20T06:19:29.049Z,42.37
2022-12-20T06:22:00.498Z,41.70
2022-12-20T06:24:44.288Z,44.40
2022-12-20T06:27:18.184Z,43.43
2022-12-20T06:29:51.421Z,44.13
2022-12-20T06:32:23.797Z,46.23
2022-12-20T06:34:54.533Z,48.97
2022-12-20T06:37:24.090Z,52.83
2022-12-20T06:39:53.623Z,55.27
2022-12-20T06:42:23.943Z,53.63
2022-12-20T06:44:53.221Z,52.07
2022-12-20T06:47:23.506Z,49.03
2022-12-20T06:49:54.422Z,47.70
2022-12-20T06:52:26.670Z,47.67
2022-12-20T06:54:57.614Z,49.70
2022-12-20T06:57:27.163Z,55.53
2022-12-20T06:59:57.710Z,59.03
2022-12-20T07:02:27.748Z,59.03
2022-12-20T07:04:57.755Z,59.90
2022-12-20T07:07:27.000Z,61.75
2022-12-20T07:09:56.553Z,57.40
2022-12-20T07:12:25.849Z,52.80
2022-12-20T07:14:55.428Z,50.17
2022-12-20T07:17:25.571Z,45.97
2022-12-20T07:19:55.514Z,46.50
2022-12-20T07:22:25.048Z,52.10
2022-12-20T07:24:55.618Z,51.25
2022-12-20T07:27:25.054Z,52.50
2022-12-20T07:29:56.422Z,50.03
2022-12-20T07:32:25.804Z,47.70
2022-12-20T07:34:55.422Z,44.60
2022-12-20T07:37:24.751Z,44.10
2022-12-20T07:39:54.185Z,40.07
2022-12-20T07:42:25.437Z,40.77
2022-12-20T07:44:57.682Z,41.60
2022-12-20T07:47:27.076Z,41.20
2022-12-20T07:49:58.059Z,41.70
2022-12-20T07:52:28.499Z,41.10
2022-12-20T07:54:59.235Z,39.13
2022-12-20T07:57:32.417Z,40.35
2022-12-20T08:00:02.189Z,39.55
2022-12-20T08:02:43.325Z,40.53
2022-12-20T08:05:15.517Z,43.60
2022-12-20T08:07:46.310Z,42.10
2022-12-20T08:10:19.105Z,40.50
2022-12-20T08:12:48.867Z,48.35
2022-12-20T08:15:21.540Z,43.67
2022-12-20T08:17:51.130Z,41.25
2022-12-20T08:20:20.459Z,39.77
2022-12-20T08:22:50.380Z,41.80
2022-12-20T08:25:21.058Z,40.80
2022-12-20T08:27:50.448Z,38.67
2022-12-20T08:30:19.896Z,34.93
2022-12-20T08:32:49.393Z,36.20
2022-12-20T08:35:18.827Z,35.65
2022-12-20T08:37:48.344Z,35.55
2022-12-20T08:40:18.721Z,35.27
2022-12-20T08:42:48.415Z,35.37
2022-12-20T08:45:19.711Z,35.25
2022-12-20T08:47:48.942Z,33.47
2022-12-20T08:50:19.377Z,35.20
2022-12-20T08:52:48.722Z,36.10
2022-12-20T08:55:20.053Z,32.20
2022-12-20T08:57:53.034Z,31.63
2022-12-20T09:00:22.535Z,33.40
2022-12-20T09:02:54.505Z,30.83
2022-12-20T09:05:24.207Z,30.15
2022-12-20T09:07:53.687Z,30.83
2022-12-20T09:10:23.057Z,31.17
2022-12-20T09:12:52.342Z,31.75
2022-12-20T09:15:21.683Z,30.10
2022-12-20T09:17:51.369Z,30.33
2022-12-20T09:20:20.696Z,30.93
2022-12-20T09:22:50.188Z,30.60
2022-12-20T09:25:19.738Z,29.60
2022-12-20T09:27:49.096Z,30.25
2022-12-20T09:30:18.738Z,38.00
2022-12-20T09:32:47.970Z,36.85
2022-12-20T09:35:22.822Z,30.70
2022-12-20T09:37:52.842Z,28.60
2022-12-20T09:40:24.668Z,28.85
2022-12-20T09:42:54.174Z,28.65
2022-12-20T09:45:25.259Z,30.15
2022-12-20T09:47:54.623Z,31.25
2022-12-20T09:50:33.009Z,29.30
2022-12-20T09:53:06.513Z,30.25
2022-12-20T09:55:37.234Z,30.90
2022-12-20T09:58:19.409Z,30.53
2022-12-20T10:00:53.914Z,32.48
2022-12-20T10:03:26.579Z,30.85
2022-12-20T10:05:59.278Z,32.03
2022-12-20T10:08:42.951Z,31.70
2022-12-20T10:11:18.427Z,32.63
2022-12-20T10:13:55.392Z,31.07
2022-12-20T10:16:33.760Z,31.50
2022-12-20T10:19:08.741Z,32.67
2022-12-20T10:21:42.527Z,33.27
2022-12-20T10:24:13.735Z,30.67
2022-12-20T10:26:43.118Z,30.15
2022-12-20T10:29:12.458Z,31.95
2022-12-20T10:31:41.888Z,30.43
2022-12-20T10:34:11.297Z,29.50
2022-12-20T10:36:41.538Z,31.90
2022-12-20T10:39:10.896Z,30.60
2022-12-20T10:41:51.378Z,28.47
2022-12-20T10:44:24.321Z,29.57
2022-12-20T10:46:55.530Z,30.20
2022-12-20T10:49:30.459Z,29.02
2022-12-20T10:52:00.763Z,31.47
2022-12-20T10:54:32.183Z,31.15
2022-12-20T10:57:03.391Z,27.90
2022-12-20T10:59:34.984Z,27.25
2022-12-20T11:02:21.503Z,27.77
2022-12-20T11:04:59.452Z,27.70
2022-12-20T11:07:30.138Z,29.15
2022-12-20T11:10:00.571Z,29.87
2022-12-20T11:12:30.082Z,29.90
2022-12-20T11:15:09.893Z,29.70
2022-12-20T11:17:41.840Z,29.10
2022-12-20T11:20:26.059Z,29.85
2022-12-20T11:23:03.161Z,28.95
2022-12-20T11:25:37.238Z,27.47
2022-12-20T11:28:19.142Z,29.40
2022-12-20T11:30:54.265Z,30.15
2022-12-20T11:33:32.119Z,28.95
2022-12-20T11:36:02.878Z,31.10
2022-12-20T11:38:39.923Z,29.73
2022-12-20T11:41:11.341Z,32.00
2022-12-20T11:44:15.598Z,30.00
2022-12-20T11:46:48.073Z,30.60
2022-12-20T11:49:40.932Z,31.40
2022-12-20T11:52:15.331Z,31.30
2022-12-20T11:54:46.388Z,30.10
2022-12-20T11:57:18.198Z,31.00
2022-12-20T11:59:50.376Z,30.77
2022-12-20T12:02:23.280Z,28.90
2022-12-20T12:04:55.450Z,28.20
2022-12-20T12:07:28.923Z,27.45
2022-12-20T12:10:00.810Z,30.85
2022-12-20T12:12:33.098Z,30.23
2022-12-20T12:15:05.245Z,30.55
2022-12-20T12:17:38.637Z,30.37
2022-12-20T12:20:22.260Z,27.25
2022-12-20T12:22:55.756Z,26.30
2022-12-20T12:25:25.364Z,26.23
2022-12-20T12:27:54.821Z,28.40
2022-12-20T12:30:24.660Z,28.20
2022-12-20T12:32:55.424Z,26.63
2022-12-20T12:35:38.257Z,26.60
2022-12-20T12:38:27.693Z,25.50
2022-12-20T12:41:07.526Z,27.60
2022-12-20T12:43:47.810Z,27.00
2022-12-20T12:46:18.326Z,27.70
2022-12-20T12:48:50.725Z,27.30
2022-12-20T12:51:25.476Z,28.55
2022-12-20T12:54:02.603Z,27.00
2022-12-20T12:56:46.484Z,26.80
2022-12-20T12:59:25.371Z,27.55
2022-12-20T13:01:56.536Z,26.77
2022-12-20T13:04:30.079Z,27.30
2022-12-20T13:07:04.447Z,27.35
2022-12-20T13:09:38.824Z,27.20
2022-12-20T13:12:27.529Z,26.10
2022-12-20T13:14:56.879Z,29.50
2022-12-20T13:17:46.913Z,26.87
2022-12-20T13:20:17.985Z,26.40
2022-12-20T13:23:14.435Z,26.60
2022-12-20T13:25:45.641Z,28.05
2022-12-20T13:28:33.109Z,30.45
2022-12-20T13:31:21.173Z,30.20
2022-12-20T13:33:51.557Z,29.40
2022-12-20T13:36:31.258Z,28.40
2022-12-20T13:39:01.871Z,29.55
2022-12-20T13:41:42.042Z,28.97
2022-12-20T13:44:21.595Z,28.00
2022-12-20T13:46:54.560Z,27.20
2022-12-20T13:49:27.713Z,26.10
2022-12-20T13:52:23.176Z,26.20
2022-12-20T13:54:54.530Z,25.60
2022-12-20T13:57:27.350Z,25.85
2022-12-20T14:00:05.784Z,26.85
2022-12-20T14:02:40.743Z,28.65
2022-12-20T14:05:16.032Z,28.50
2022-12-20T14:07:47.354Z,28.10
2022-12-20T14:10:21.310Z,28.30
2022-12-20T14:12:54.501Z,28.50
2022-12-20T14:15:25.883Z,28.02
2022-12-20T14:17:55.268Z,27.83
2022-12-20T14:20:26.675Z,27.45
2022-12-20T14:23:04.447Z,25.62
2022-12-20T14:25:38.568Z,29.80
2022-12-20T14:28:14.234Z,36.07
2022-12-20T14:30:44.154Z,40.15
2022-12-20T14:33:21.085Z,39.53
2022-12-20T14:35:51.814Z,35.73
2022-12-20T14:38:25.879Z,35.55
2022-12-20T14:40:55.457Z,36.30
2022-12-20T14:43:27.303Z,39.25
2022-12-20T14:46:14.967Z,37.90
2022-12-20T14:48:44.571Z,32.25
2022-12-20T14:51:19.749Z,31.30
2022-12-20T14:53:50.622Z,31.00
2022-12-20T14:56:25.197Z,28.63
2022-12-20T14:59:03.571Z,29.50
2022-12-20T15:01:37.207Z,29.17
2022-12-20T15:04:23.890Z,31.07
2022-12-20T15:06:53.339Z,27.90
2022-12-20T15:09:24.364Z,28.73
2022-12-20T15:11:54.646Z,30.17
2022-12-20T15:14:28.895Z,30.77
2022-12-20T15:16:58.388Z,31.50
2022-12-20T15:19:27.951Z,31.13
2022-12-20T15:21:57.640Z,30.13
2022-12-20T15:24:27.516Z,30.40
2022-12-20T15:26:56.859Z,32.43
2022-12-20T15:29:27.589Z,32.10
2022-12-20T15:32:01.230Z,36.90
2022-12-20T15:37:01.944Z,38.83
2022-12-20T15:39:32.384Z,37.10
2022-12-20T15:42:04.314Z,36.95
2022-12-20T15:44:35.777Z,33.88
2022-12-20T15:47:05.367Z,35.25
2022-12-20T15:49:35.017Z,33.70
2022-12-20T15:52:04.852Z,34.13
2022-12-20T15:54:35.174Z,35.03
2022-12-20T15:57:06.994Z,34.70
2022-12-20T16:02:28.360Z,36.05
2022-12-20T16:04:58.966Z,39.63
2022-12-20T16:07:28.574Z,39.05
2022-12-20T16:09:58.219Z,39.50
2022-12-20T16:12:30.495Z,38.45
2022-12-20T16:15:00.115Z,39.88
2022-12-20T16:17:29.431Z,41.57
2022-12-20T16:19:58.831Z,43.13
2022-12-20T16:22:28.434Z,44.87
2022-12-20T16:24:58.604Z,46.67
2022-12-20T16:27:27.948Z,43.80
2022-12-20T16:29:57.612Z,41.80
2022-12-20T16:32:27.065Z,41.60
2022-12-20T16:34:56.677Z,39.45
2022-12-20T16:37:26.082Z,38.70
2022-12-20T16:39:55.433Z,36.47
2022-12-20T16:42:24.755Z,35.35
2022-12-20T16:44:54.679Z,34.10
2022-12-20T16:47:24.181Z,34.30
2022-12-20T16:49:54.244Z,35.30
2022-12-20T16:52:23.775Z,38.55
2022-12-20T16:54:53.197Z,41.13
2022-12-20T16:57:23.206Z,42.70
2022-12-20T16:59:52.648Z,43.93
2022-12-20T17:02:26.424Z,44.63
2022-12-20T17:04:57.626Z,48.60
2022-12-20T17:07:27.575Z,47.70
2022-12-20T17:10:10.718Z,42.20
2022-12-20T17:12:40.339Z,37.07
2022-12-20T17:15:15.178Z,35.63
2022-12-20T17:17:45.395Z,34.55
2022-12-20T17:20:15.258Z,34.50
2022-12-20T17:22:45.356Z,33.97
2022-12-20T17:25:18.867Z,36.10
2022-12-20T17:27:48.225Z,35.90
2022-12-20T17:30:18.355Z,35.17
2022-12-20T17:32:48.071Z,34.67
2022-12-20T17:35:22.060Z,37.00
2022-12-20T17:37:55.190Z,40.43
2022-12-20T17:40:25.745Z,41.30
2022-12-20T17:42:55.514Z,41.00
2022-12-20T17:45:26.648Z,40.50
2022-12-20T17:47:59.628Z,42.37
2022-12-20T17:50:29.233Z,40.87
2022-12-20T17:52:58.549Z,39.73
2022-12-20T17:55:28.433Z,40.95
2022-12-20T17:57:58.763Z,39.57
2022-12-20T18:00:38.123Z,39.80
2022-12-20T18:03:19.958Z,41.30
2022-12-20T18:06:07.772Z,41.30
2022-12-20T18:08:39.668Z,43.10
2022-12-20T18:11:09.245Z,44.93
2022-12-20T18:13:44.181Z,47.90
2022-12-20T18:16:14.119Z,50.10
2022-12-20T18:18:44.149Z,53.97
2022-12-20T18:21:14.749Z,56.77
2022-12-20T18:23:44.658Z,57.97
2022-12-20T18:26:14.670Z,60.80
2022-12-20T18:28:45.523Z,54.50
2022-12-20T18:31:16.075Z,51.03
2022-12-20T18:33:45.402Z,48.37
2022-12-20T18:36:15.736Z,47.87
2022-12-20T18:38:46.168Z,47.35
2022-12-20T18:41:17.195Z,44.70
2022-12-20T18:43:46.471Z,43.90
2022-12-20T18:46:17.021Z,46.70
2022-12-20T18:48:47.193Z,45.23
2022-12-20T18:51:17.783Z,45.25
2022-12-20T18:53:47.764Z,43.70
2022-12-20T18:56:19.421Z,42.70
2022-12-20T18:58:48.733Z,43.23
2022-12-20T19:01:20.240Z,41.57
2022-12-20T19:03:50.345Z,40.30
2022-12-20T19:06:20.575Z,40.67
2022-12-20T19:08:50.190Z,38.90
2022-12-20T19:11:20.341Z,41.07
2022-12-20T19:13:50.285Z,38.00
2022-12-20T19:16:20.680Z,40.57
2022-12-20T19:18:50.743Z,41.15
2022-12-20T19:21:21.501Z,39.83
2022-12-20T19:23:51.834Z,42.93
2022-12-20T19:26:22.099Z,40.87
2022-12-20T19:28:51.671Z,39.60
2022-12-20T19:31:23.166Z,39.45
2022-12-20T19:33:53.366Z,42.53
2022-12-20T19:36:24.597Z,41.40
2022-12-20T19:38:55.406Z,42.87
2022-12-20T19:41:25.435Z,42.90
2022-12-20T19:43:55.120Z,43.47
2022-12-20T19:46:28.839Z,39.53
2022-12-20T19:48:59.379Z,39.93
2022-12-20T19:51:28.901Z,41.07
2022-12-20T19:53:58.534Z,40.60
2022-12-20T19:56:29.157Z,39.23
2022-12-20T19:58:58.719Z,41.23
2022-12-20T20:01:29.026Z,42.43
2022-12-20T20:03:59.502Z,43.45
2022-12-20T20:06:29.382Z,42.90
2022-12-20T20:08:59.841Z,42.90
2022-12-20T20:11:30.199Z,40.90
2022-12-20T20:14:00.040Z,38.10
2022-12-20T20:16:29.760Z,37.10
2022-12-20T20:18:59.387Z,37.90
2022-12-20T20:21:29.010Z,36.80
2022-12-20T20:23:58.931Z,36.80
2022-12-20T20:26:29.052Z,38.33
2022-12-20T20:28:58.345Z,39.00
2022-12-20T20:31:28.459Z,40.03
2022-12-20T20:33:58.250Z,38.57
2022-12-20T20:36:27.566Z,39.70
2022-12-20T20:38:57.102Z,42.25
2022-12-20T20:41:26.998Z,42.60
2022-12-20T20:43:56.323Z,41.67
2022-12-20T20:46:25.619Z,42.40
2022-12-20T20:48:55.047Z,46.10
2022-12-20T20:51:24.457Z,43.53
2022-12-20T20:53:53.671Z,43.80
2022-12-20T20:56:23.133Z,43.95
2022-12-20T20:58:57.678Z,42.00
2022-12-20T21:01:30.675Z,41.20
2022-12-20T21:04:00.132Z,42.10
2022-12-20T21:06:40.528Z,40.40
2022-12-20T21:09:11.329Z,39.60
2022-12-20T21:11:40.931Z,39.57
2022-12-20T21:14:12.184Z,41.77
2022-12-20T21:16:41.507Z,38.55
2022-12-20T21:19:10.842Z,39.03
2022-12-20T21:21:40.117Z,38.57
2022-12-20T21:24:09.521Z,42.60
2022-12-20T21:26:38.905Z,41.57
2022-12-20T21:29:08.514Z,40.43
2022-12-20T21:31:37.934Z,39.90
2022-12-20T21:34:07.186Z,38.67
2022-12-20T21:36:36.643Z,40.57
2022-12-20T21:39:06.130Z,40.70
2022-12-20T21:41:35.857Z,38.65
2022-12-20T21:44:05.284Z,36.80
2022-12-20T21:46:34.489Z,38.50
2022-12-20T21:49:03.900Z,41.73
2022-12-20T21:51:34.885Z,41.13
2022-12-20T21:54:04.662Z,43.13
2022-12-20T21:56:35.668Z,42.87
2022-12-20T21:59:04.937Z,42.10
2022-12-20T22:01:34.492Z,39.60
2022-12-20T22:04:04.544Z,41.40
2022-12-20T22:06:34.072Z,39.07
2022-12-20T22:09:06.332Z,40.10
2022-12-20T22:11:36.267Z,36.28
2022-12-20T22:14:06.458Z,36.10
2022-12-20T22:16:36.288Z,35.17
2022-12-20T22:19:06.060Z,37.13
2022-12-20T22:21:36.308Z,35.20
2022-12-20T22:24:05.980Z,34.23
2022-12-20T22:26:36.351Z,35.07
2022-12-20T22:29:06.579Z,32.87
2022-12-20T22:31:36.805Z,33.43
2022-12-20T22:34:06.309Z,33.60
2022-12-20T22:36:36.430Z,34.50
2022-12-20T22:39:05.844Z,34.80
2022-12-20T22:41:35.323Z,35.00
2022-12-20T22:44:05.544Z,33.73
2022-12-20T22:46:34.882Z,35.83
2022-12-20T22:49:04.097Z,34.13
2022-12-20T22:51:33.902Z,34.40
2022-12-20T22:54:03.985Z,34.80
2022-12-20T22:56:33.320Z,36.50
2022-12-20T22:59:02.630Z,35.60
2022-12-20T23:01:32.030Z,34.25
2022-12-20T23:04:02.031Z,35.85
2022-12-20T23:06:31.977Z,35.43
2022-12-20T23:09:01.217Z,35.93
2022-12-20T23:11:48.637Z,33.47
2022-12-20T23:14:36.675Z,34.60
2022-12-20T23:17:06.928Z,33.43
2022-12-20T23:19:50.684Z,34.13
2022-12-20T23:22:40.180Z,33.35
2022-12-20T23:25:11.319Z,34.20
2022-12-20T23:27:41.701Z,33.97
2022-12-20T23:30:13.681Z,33.60
2022-12-20T23:32:44.236Z,35.58
2022-12-20T23:35:16.574Z,34.73
2022-12-20T23:37:45.963Z,38.03
2022-12-20T23:40:15.615Z,37.20
2022-12-20T23:42:44.965Z,36.23
2022-12-20T23:45:14.284Z,36.00
2022-12-20T23:47:43.715Z,36.10
2022-12-20T23:50:13.068Z,38.90
2022-12-20T23:52:43.021Z,34.00
2022-12-20T23:55:12.367Z,35.43
2022-12-20T23:57:41.978Z,35.40
